Time;durP1;ratioP1;P1;durP2;ratioP2;P2;SDS_P1;SDS_P2;PMS_P1;PMS_P2;Temp;Humidity;BMP_temperature;BMP_pressure;BME280_temperature;BME280_humidity;BME280_pressure;Samples;Min_cycle;Max_cycle;Signal;HPM_P1;HPM_P2
2023/04/21 00:02:05;;;;;;;0.72;0.72;;;;;;;24.54;37.39;98560.55;1886772;75;28056;-63
2023/04/21 00:04:55;;;;;;;0.90;0.63;;;;;;;24.52;37.47;98551.77;1868684;76;28143;-65
2023/04/21 00:07:43;;;;;;;0.62;0.62;;;;;;;24.54;37.50;98549.56;1868180;75;28205;-64
2023/04/21 00:10:32;;;;;;;0.53;0.53;;;;;;;24.52;37.57;98533.91;1893881;75;28126;-64
2023/04/21 00:13:20;;;;;;;0.50;0.50;;;;;;;24.53;37.57;98537.46;1888743;75;28060;-66
2023/04/21 00:16:08;;;;;;;0.55;0.55;;;;;;;24.52;37.66;98527.05;1878849;75;28070;-64
2023/04/21 00:18:57;;;;;;;0.50;0.50;;;;;;;24.52;37.66;98522.94;1878463;75;28182;-64
2023/04/21 00:21:45;;;;;;;0.60;0.60;;;;;;;24.50;37.78;98511.40;1868615;76;28305;-64
2023/04/21 00:24:34;;;;;;;0.68;0.68;;;;;;;24.52;37.79;98509.75;1881353;75;28705;-65
2023/04/21 00:27:22;;;;;;;0.70;0.70;;;;;;;24.44;37.83;98501.48;1856855;77;28182;-65
2023/04/21 00:30:11;;;;;;;0.57;0.57;;;;;;;24.50;37.84;98507.28;1890906;75;28138;-64
2023/04/21 00:32:59;;;;;;;0.80;0.80;;;;;;;24.53;37.95;98511.38;1894149;75;28320;-65
2023/04/21 00:35:49;;;;;;;0.60;0.60;;;;;;;24.53;37.95;98506.72;1895536;75;28063;-63
2023/04/21 00:38:38;;;;;;;1.22;0.70;;;;;;;24.53;37.92;98503.97;1868867;76;28049;-64
2023/04/21 00:41:29;;;;;;;0.70;0.70;;;;;;;24.52;37.96;98504.25;1889524;75;28632;-64
2023/04/21 00:44:17;;;;;;;0.72;0.72;;;;;;;24.51;37.98;98506.17;1878494;75;28565;-63
2023/04/21 00:47:06;;;;;;;0.70;0.70;;;;;;;24.52;38.11;98514.70;1872834;75;28211;-64
2023/04/21 00:49:54;;;;;;;0.50;0.50;;;;;;;24.53;38.10;98512.21;1898234;75;28091;-64
2023/04/21 00:52:45;;;;;;;0.60;0.60;;;;;;;24.51;38.07;98503.42;1895127;75;36354;-65
2023/04/21 00:55:34;;;;;;;0.68;0.68;;;;;;;24.51;38.14;98508.91;1865587;74;28127;-64
2023/04/21 00:58:23;;;;;;;0.78;0.60;;;;;;;24.53;38.13;98512.75;1884483;75;28205;-63
2023/04/21 01:01:13;;;;;;;0.50;0.50;;;;;;;24.51;38.12;98503.42;1879881;75;28121;-64
2023/04/21 01:04:04;;;;;;;0.50;0.50;;;;;;;24.51;38.15;98509.45;1874559;75;28111;-63
2023/04/21 01:06:53;;;;;;;0.50;0.50;;;;;;;24.51;38.21;98504.80;1895317;75;28060;-64
2023/04/21 01:09:41;;;;;;;0.70;0.70;;;;;;;24.52;38.22;98502.88;1895116;75;28178;-64
2023/04/21 01:12:30;;;;;;;0.70;0.70;;;;;;;24.53;38.20;98519.07;1872145;75;28157;-64
2023/04/21 01:15:19;;;;;;;0.70;0.63;;;;;;;24.53;38.23;98522.36;1868649;76;28072;-64
2023/04/21 01:18:08;;;;;;;0.60;0.60;;;;;;;24.50;38.27;98516.89;1868734;76;28185;-64
2023/04/21 01:20:57;;;;;;;0.50;0.50;;;;;;;24.51;38.27;98514.41;1886602;75;28130;-65
2023/04/21 01:23:46;;;;;;;0.60;0.60;;;;;;;24.52;38.29;98525.68;1883076;74;28124;-64
2023/04/21 01:26:34;;;;;;;0.50;0.50;;;;;;;24.51;38.31;98529.50;1876471;74;28243;-64
2023/04/21 01:29:23;;;;;;;0.57;0.55;;;;;;;24.50;38.34;98527.05;1881204;75;28505;-64
2023/04/21 01:32:14;;;;;;;1.80;0.70;;;;;;;24.49;38.35;98513.86;1889710;75;28135;-65
2023/04/21 01:35:03;;;;;;;0.53;0.53;;;;;;;24.52;38.34;98517.98;1889363;75;28120;-64
2023/04/21 01:37:51;;;;;;;0.55;0.55;;;;;;;24.52;38.39;98515.23;1871263;75;28174;-64
2023/04/21 01:40:41;;;;;;;0.72;0.72;;;;;;;24.53;38.32;98510.00;1896665;75;35194;-64
2023/04/21 01:43:30;;;;;;;0.60;0.60;;;;;;;24.50;38.36;98500.42;1868941;76;28185;-64
2023/04/21 01:46:22;;;;;;;0.68;0.55;;;;;;;24.53;38.37;98491.62;1891425;75;28177;-64
2023/04/21 01:49:10;;;;;;;0.50;0.50;;;;;;;24.52;38.42;98487.24;1893868;75;28100;-66
2023/04/21 01:51:59;;;;;;;0.80;0.80;;;;;;;24.51;38.43;98482.83;1894433;75;28130;-66
2023/04/21 01:54:47;;;;;;;0.70;0.70;;;;;;;24.52;38.42;98491.36;1868658;75;28182;-64
2023/04/21 01:57:35;;;;;;;0.60;0.60;;;;;;;24.52;38.45;98486.41;1866985;76;28170;-65
2023/04/21 02:00:24;;;;;;;0.40;0.40;;;;;;;24.50;38.51;98493.55;1864360;75;28241;-65
2023/04/21 02:03:13;;;;;;;0.70;0.70;;;;;;;24.49;38.52;98497.92;1884695;75;28123;-65
2023/04/21 02:06:01;;;;;;;0.60;0.60;;;;;;;24.51;38.50;98497.10;1868853;76;28131;-64
2023/04/21 02:08:50;;;;;;;0.50;0.50;;;;;;;24.51;38.49;98513.58;1887074;75;28127;-64
2023/04/21 02:11:38;;;;;;;0.62;0.62;;;;;;;24.50;38.49;98507.28;1894028;75;33208;-64
2023/04/21 02:14:27;;;;;;;0.60;0.60;;;;;;;24.52;38.52;98498.22;1869030;76;28167;-64
2023/04/21 02:17:16;;;;;;;0.80;0.80;;;;;;;24.52;38.48;98502.34;1891000;75;28063;-65
2023/04/21 02:20:06;;;;;;;0.60;0.60;;;;;;;24.51;38.52;98492.44;1893503;75;28044;-64
2023/04/21 02:22:54;;;;;;;0.65;0.65;;;;;;;24.50;38.53;98499.05;1882869;75;30078;-66
2023/04/21 02:25:42;;;;;;;0.50;0.50;;;;;;;24.52;38.49;98497.39;1881645;75;28144;-66
2023/04/21 02:28:33;;;;;;;0.70;0.70;;;;;;;24.50;38.55;98490.81;1893323;75;28064;-64
2023/04/21 02:31:21;;;;;;;0.68;0.60;;;;;;;24.52;38.55;98499.59;1893268;75;28115;-64
2023/04/21 02:34:10;;;;;;;0.50;0.50;;;;;;;24.49;38.54;98500.13;1895176;75;28170;-64
2023/04/21 02:36:59;;;;;;;0.50;0.50;;;;;;;24.53;38.48;98499.02;1893914;75;28128;-66
2023/04/21 02:39:47;;;;;;;0.60;0.60;;;;;;;24.52;38.52;98487.78;1879286;75;28056;-64
2023/04/21 02:42:36;;;;;;;0.50;0.50;;;;;;;24.50;38.54;98492.72;1880561;75;28199;-66
2023/04/21 02:45:24;;;;;;;0.30;0.30;;;;;;;24.50;38.53;98489.98;1876911;75;28133;-64
2023/04/21 02:48:12;;;;;;;0.60;0.60;;;;;;;24.51;38.55;98485.58;1879506;74;28114;-65
2023/04/21 02:51:01;;;;;;;0.60;0.60;;;;;;;24.51;38.57;98493.81;1889673;74;28176;-64
2023/04/21 02:53:50;;;;;;;0.50;0.50;;;;;;;24.51;38.54;98486.12;1896843;75;28102;-64
2023/04/21 02:56:38;;;;;;;0.60;0.60;;;;;;;24.51;38.53;98477.34;1896632;75;28200;-66
2023/04/21 02:59:27;;;;;;;0.57;0.57;;;;;;;24.50;38.63;98469.39;1897173;75;28130;-64
2023/04/21 03:02:15;;;;;;;0.57;0.57;;;;;;;24.51;38.50;98475.97;1889356;75;28119;-63
2023/04/21 03:05:05;;;;;;;0.50;0.50;;;;;;;24.52;38.55;98476.80;1892643;75;28048;-62
2023/04/21 03:07:54;;;;;;;0.67;0.67;;;;;;;24.50;38.56;98470.77;1887631;75;28155;-64
2023/04/21 03:10:42;;;;;;;0.60;0.60;;;;;;;24.47;38.60;98461.14;1890580;74;28615;-63
2023/04/21 03:13:30;;;;;;;0.60;0.60;;;;;;;24.50;38.57;98474.34;1867760;76;28225;-63
2023/04/21 03:16:19;;;;;;;0.60;0.60;;;;;;;24.48;38.63;98469.64;1868776;76;28676;-63
2023/04/21 03:19:07;;;;;;;0.50;0.50;;;;;;;24.49;38.57;98465.81;1880865;75;28068;-63
2023/04/21 03:21:56;;;;;;;0.62;0.62;;;;;;;24.47;38.57;98462.52;1893487;75;28056;-63
2023/04/21 03:24:44;;;;;;;0.53;0.53;;;;;;;24.47;38.61;98467.17;1901306;75;28049;-62
2023/04/21 03:27:33;;;;;;;0.70;0.70;;;;;;;24.48;38.59;98468.27;1885427;75;28094;-63
2023/04/21 03:30:25;;;;;;;0.50;0.50;;;;;;;24.46;38.66;98454.53;1879842;75;28072;-64
2023/04/21 03:33:13;;;;;;;0.70;0.70;;;;;;;24.47;38.64;98452.91;1893456;75;28130;-62
2023/04/21 03:36:02;;;;;;;0.57;0.57;;;;;;;24.47;38.62;98458.40;1869050;74;28184;-62
2023/04/21 03:38:50;;;;;;;0.55;0.55;;;;;;;24.47;38.61;98463.89;1869264;76;32960;-64
2023/04/21 03:41:39;;;;;;;0.50;0.50;;;;;;;24.45;38.64;98478.44;1890729;75;28241;-64
2023/04/21 03:44:28;;;;;;;0.60;0.60;;;;;;;24.44;38.64;98478.15;1872161;75;28281;-66
2023/04/21 03:47:17;;;;;;;0.60;0.60;;;;;;;24.45;38.65;98479.81;1894088;75;28220;-66
2023/04/21 03:50:07;;;;;;;0.65;0.65;;;;;;;24.45;38.64;98478.44;1868985;76;28257;-65
2023/04/21 03:52:55;;;;;;;0.57;0.57;;;;;;;24.44;38.65;98474.03;1891499;75;28064;-64
2023/04/21 03:55:47;;;;;;;0.57;0.57;;;;;;;24.46;38.63;98483.36;1893480;75;28163;-64
2023/04/21 03:58:34;;;;;;;0.60;0.60;;;;;;;24.42;38.67;98484.46;1882818;75;28178;-64
2023/04/21 04:01:23;;;;;;;0.55;0.55;;;;;;;24.45;38.67;98501.77;1887580;74;28211;-63
2023/04/21 04:04:11;;;;;;;0.70;0.70;;;;;;;24.44;38.63;98491.87;1890179;75;28213;-64
2023/04/21 04:07:00;;;;;;;0.80;0.70;;;;;;;24.44;38.66;98485.55;1884853;75;28125;-62
2023/04/21 04:09:48;;;;;;;0.75;0.75;;;;;;;24.42;38.68;98489.95;1883171;75;28198;-63
2023/04/21 04:12:36;;;;;;;1.00;0.50;;;;;;;24.44;38.64;98495.99;1881056;75;28103;-63
2023/04/21 04:15:24;;;;;;;0.50;0.50;;;;;;;24.43;38.64;98494.91;1873512;75;28235;-63
2023/04/21 04:18:13;;;;;;;0.65;0.57;;;;;;;24.42;38.69;98505.05;1864812;75;28166;-62
2023/04/21 04:21:08;;;;;;;0.50;0.50;;;;;;;24.43;38.67;98503.14;1869040;75;28254;-63
2023/04/21 04:23:56;;;;;;;0.50;0.50;;;;;;;24.42;38.65;98492.70;1868815;76;28067;-62
2023/04/21 04:26:45;;;;;;;0.60;0.60;;;;;;;24.40;38.71;98501.75;1872849;75;28121;-62
2023/04/21 04:29:33;;;;;;;0.40;0.40;;;;;;;24.40;38.74;98496.80;1897782;75;28079;-63
2023/04/21 04:32:22;;;;;;;0.60;0.60;;;;;;;24.40;38.71;98489.41;1885471;75;28185;-63
2023/04/21 04:35:11;;;;;;;0.60;0.60;;;;;;;24.39;38.78;98493.23;1868696;75;28194;-62
2023/04/21 04:38:01;;;;;;;0.80;0.80;;;;;;;24.40;38.74;98493.52;1868448;76;28111;-63
2023/04/21 04:41:00;;;;;;;0.60;0.60;;;;;;;24.40;38.74;98478.96;1882222;75;28181;-63
2023/04/21 04:43:49;;;;;;;0.60;0.60;;;;;;;24.38;38.71;98471.02;1869025;76;28258;-62
2023/04/21 04:46:38;;;;;;;0.40;0.40;;;;;;;24.37;38.77;98468.52;1869169;76;28181;-63
2023/04/21 04:49:27;;;;;;;0.60;0.60;;;;;;;24.37;38.80;98476.20;1873307;75;28130;-63
2023/04/21 04:52:15;;;;;;;0.68;0.68;;;;;;;24.37;38.79;98475.38;1896855;75;28157;-63
2023/04/21 04:55:03;;;;;;;0.45;0.45;;;;;;;24.37;38.80;98483.61;1879866;75;28093;-63
2023/04/21 04:57:51;;;;;;;0.50;0.50;;;;;;;24.37;38.81;98476.20;1893895;75;28060;-62
2023/04/21 05:00:40;;;;;;;0.42;0.42;;;;;;;24.39;38.80;98484.99;1888303;75;28126;-62
2023/04/21 05:03:28;;;;;;;0.47;0.47;;;;;;;24.39;38.80;98495.97;1889224;75;28063;-63
2023/04/21 05:06:16;;;;;;;0.55;0.55;;;;;;;24.39;38.78;98493.23;1868997;76;28087;-62
2023/04/21 05:09:05;;;;;;;0.55;0.55;;;;;;;24.39;38.77;98498.72;1891043;75;28102;-64
2023/04/21 05:11:53;;;;;;;0.95;0.80;;;;;;;24.38;38.73;98508.06;1876663;75;28277;-63
2023/04/21 05:14:42;;;;;;;1.27;0.70;;;;;;;24.37;38.48;98521.50;1876772;75;28196;-63
2023/04/21 05:17:31;;;;;;;1.05;1.05;;;;;;;24.35;38.47;98522.86;1899176;75;28116;-63
2023/04/21 05:20:19;;;;;;;1.00;1.00;;;;;;;24.31;37.91;98525.33;1893711;75;28259;-64
2023/04/21 05:23:08;;;;;;;1.00;1.00;;;;;;;24.32;37.91;98531.08;1893308;75;28137;-66
2023/04/21 05:25:57;;;;;;;0.75;0.75;;;;;;;24.35;37.82;98522.86;1891010;74;28189;-65
2023/04/21 05:28:45;;;;;;;1.30;0.80;;;;;;;24.32;37.87;98522.84;1889960;75;28196;-67
2023/04/21 05:31:33;;;;;;;2.00;1.07;;;;;;;24.31;37.96;98522.59;1899123;75;28190;-70
2023/04/21 05:34:22;;;;;;;1.50;0.72;;;;;;;24.32;38.04;98516.56;1897272;75;28131;-70
2023/04/21 05:37:11;;;;;;;0.80;0.80;;;;;;;24.32;38.14;98521.48;1885394;75;28329;-69
2023/04/21 05:40:00;;;;;;;0.90;0.90;;;;;;;24.33;38.14;98513.53;1870938;75;28064;-70
2023/04/21 05:42:48;;;;;;;0.82;0.82;;;;;;;24.34;38.13;98516.54;1877487;75;28198;-71
2023/04/21 05:45:41;;;;;;;0.70;0.70;;;;;;;24.34;38.08;98506.94;1894078;75;28111;-69
2023/04/21 05:48:29;;;;;;;0.70;0.70;;;;;;;24.36;38.10;98507.52;1882622;75;28087;-69
2023/04/21 05:51:18;;;;;;;0.65;0.65;;;;;;;24.35;38.04;98509.97;1870102;75;28176;-69
2023/04/21 05:54:06;;;;;;;0.98;0.80;;;;;;;24.35;37.99;98515.46;1893459;75;31122;-69
2023/04/21 05:56:55;;;;;;;0.50;0.50;;;;;;;24.36;38.01;98513.00;1897267;75;28285;-71
2023/04/21 05:59:44;;;;;;;0.80;0.80;;;;;;;24.35;37.92;98511.88;1883602;75;28065;-69
2023/04/21 06:02:32;;;;;;;0.78;0.78;;;;;;;24.35;37.96;98506.39;1900536;75;28139;-68
2023/04/21 06:05:21;;;;;;;0.70;0.70;;;;;;;24.37;37.94;98514.64;1893515;75;28064;-71
2023/04/21 06:08:09;;;;;;;0.70;0.70;;;;;;;24.36;37.94;98517.66;1883541;75;28206;-70
2023/04/21 06:10:58;;;;;;;0.70;0.70;;;;;;;24.37;37.93;98516.01;1869027;76;30124;-71
2023/04/21 06:13:47;;;;;;;1.77;0.80;;;;;;;24.37;37.91;98517.92;1875304;75;28160;-71
2023/04/21 06:16:35;;;;;;;0.88;0.88;;;;;;;24.37;37.91;98515.17;1893526;75;28151;-69
2023/04/21 06:19:24;;;;;;;0.75;0.75;;;;;;;24.35;37.90;98509.97;1885576;75;28000;-68
2023/04/21 06:22:12;;;;;;;0.62;0.62;;;;;;;24.37;37.88;98503.66;1897173;75;28201;-70
2023/04/21 06:25:01;;;;;;;0.70;0.70;;;;;;;24.37;37.88;98504.20;1894845;75;28146;-70
2023/04/21 06:27:49;;;;;;;0.60;0.60;;;;;;;24.36;37.84;98495.16;1888850;75;28100;-70
2023/04/21 06:30:38;;;;;;;0.55;0.55;;;;;;;24.38;37.82;98490.77;1869033;76;28401;-69
2023/04/21 06:33:28;;;;;;;0.68;0.68;;;;;;;24.38;37.87;98497.09;1891367;75;28115;-70
2023/04/21 06:36:17;;;;;;;0.53;0.53;;;;;;;24.38;37.83;98505.32;1887337;75;28217;-71
2023/04/21 06:39:05;;;;;;;0.93;0.93;;;;;;;24.39;37.83;98492.39;1872450;75;27997;-69
2023/04/21 06:41:53;;;;;;;1.32;0.57;;;;;;;24.37;37.80;98489.93;1868636;76;28096;-69
2023/04/21 06:44:43;;;;;;;0.90;0.70;;;;;;;24.38;37.82;98484.73;1891135;75;28121;-69
2023/04/21 06:47:32;;;;;;;0.60;0.60;;;;;;;24.38;37.79;98487.48;1884132;75;28064;-70
2023/04/21 06:50:21;;;;;;;1.10;0.62;;;;;;;24.38;37.78;98484.73;1892742;75;28053;-69
2023/04/21 06:53:11;;;;;;;0.53;0.53;;;;;;;24.41;37.78;98480.62;1856921;77;28174;-70
2023/04/21 06:55:59;;;;;;;0.65;0.65;;;;;;;24.40;37.74;98488.03;1876726;74;28140;-71
2023/04/21 06:58:47;;;;;;;0.60;0.60;;;;;;;24.39;37.75;98488.28;1856935;77;28092;-71
2023/04/21 07:01:35;;;;;;;1.70;0.78;;;;;;;24.31;37.73;98470.98;1897526;74;27695;-70
2023/04/21 07:04:28;;;;;;;0.70;0.70;;;;;;;24.41;37.69;98485.55;1879752;75;28209;-69
2023/04/21 07:07:14;;;;;;;0.85;0.85;;;;;;;24.41;37.69;98475.94;1874442;75;30090;-69
2023/04/21 07:10:02;;;;;;;0.60;0.60;;;;;;;24.40;37.69;98478.42;1870124;74;28101;-69
2023/04/21 07:12:51;;;;;;;0.68;0.68;;;;;;;24.40;37.68;98483.91;1871440;75;28065;-69
2023/04/21 07:15:40;;;;;;;0.70;0.70;;;;;;;24.41;37.71;98492.98;1869109;76;28130;-70
2023/04/21 07:18:28;;;;;;;0.72;0.72;;;;;;;24.40;37.73;98486.66;1877734;74;28099;-69
2023/04/21 07:21:16;;;;;;;0.40;0.40;;;;;;;24.40;37.70;98488.03;1883947;75;28177;-70
2023/04/21 07:24:05;;;;;;;0.63;0.63;;;;;;;24.40;37.75;98490.77;1868841;76;28152;-70
2023/04/21 07:26:54;;;;;;;0.70;0.70;;;;;;;24.41;37.68;98493.78;1880937;75;28180;-69
2023/04/21 07:29:42;;;;;;;0.90;0.65;;;;;;;24.42;37.72;98487.20;1886999;75;28111;-70
2023/04/21 07:32:31;;;;;;;0.60;0.60;;;;;;;24.43;37.67;98490.24;1874812;75;28043;-69
2023/04/21 07:35:20;;;;;;;1.40;0.80;;;;;;;24.44;37.74;98483.64;1856695;75;28099;-69
2023/04/21 07:38:08;;;;;;;0.55;0.55;;;;;;;24.44;37.76;98486.92;1890121;75;28570;-70
2023/04/21 07:40:57;;;;;;;0.50;0.50;;;;;;;24.45;37.72;98481.72;1877952;74;31101;-70
2023/04/21 07:43:45;;;;;;;0.57;0.57;;;;;;;24.45;37.72;98482.56;1874646;76;28133;-70
2023/04/21 07:46:33;;;;;;;0.60;0.60;;;;;;;24.47;37.74;98489.14;1905950;74;28133;-69
2023/04/21 07:49:21;;;;;;;0.60;0.60;;;;;;;24.47;37.71;98487.77;1879911;75;28128;-70
2023/04/21 07:52:09;;;;;;;0.60;0.60;;;;;;;24.45;37.79;98490.80;1902796;75;28099;-69
2023/04/21 07:54:58;;;;;;;0.50;0.50;;;;;;;24.46;37.72;98492.42;1877729;76;28134;-70
2023/04/21 07:57:46;;;;;;;0.70;0.70;;;;;;;24.47;37.73;98476.25;1885531;74;28090;-69
2023/04/21 08:00:35;;;;;;;0.55;0.55;;;;;;;24.48;37.74;98482.56;1887144;74;28045;-69
2023/04/21 08:03:23;;;;;;;1.20;0.60;;;;;;;24.50;37.67;98482.58;1895741;74;28126;-70
2023/04/21 08:06:11;;;;;;;0.70;0.70;;;;;;;24.50;37.70;98479.83;1878063;76;28164;-69
2023/04/21 08:09:00;;;;;;;0.80;0.80;;;;;;;24.57;37.51;98477.65;1889262;74;28277;-69
2023/04/21 08:11:48;;;;;;;0.57;0.57;;;;;;;24.62;37.44;98479.00;1888999;74;28083;-68
2023/04/21 08:14:37;;;;;;;0.73;0.73;;;;;;;24.59;37.57;98478.20;1885000;74;28136;-69
2023/04/21 08:17:25;;;;;;;1.20;0.73;;;;;;;24.59;37.51;98487.80;1877506;74;28131;-68
2023/04/21 08:20:14;;;;;;;1.30;0.80;;;;;;;24.63;37.46;98484.78;1885727;74;28171;-69
2023/04/21 08:23:02;;;;;;;1.20;0.90;;;;;;;24.64;37.40;98479.55;1888777;74;28179;-69
2023/04/21 08:25:51;;;;;;;1.85;0.80;;;;;;;24.62;37.36;98479.58;1893701;74;28122;-69
2023/04/21 08:28:39;;;;;;;0.75;0.75;;;;;;;24.64;37.41;98471.88;1906228;74;28206;-69
2023/04/21 08:31:27;;;;;;;0.95;0.95;;;;;;;24.61;37.43;98468.30;1900179;75;28200;-70
2023/04/21 08:34:16;;;;;;;1.10;1.10;;;;;;;24.62;37.43;98474.88;1877617;76;28073;-68
2023/04/21 08:37:04;;;;;;;1.42;1.00;;;;;;;24.56;37.40;98465.00;1892651;74;28235;-69
2023/04/21 08:39:53;;;;;;;0.90;0.90;;;;;;;24.66;37.38;98473.27;1878985;74;28266;-69
2023/04/21 08:42:41;;;;;;;0.90;0.90;;;;;;;24.65;37.32;98477.09;1903086;74;28104;-69
2023/04/21 08:45:30;;;;;;;1.10;1.10;;;;;;;24.63;37.36;98482.04;1904133;74;28493;-69
2023/04/21 08:48:22;;;;;;;1.10;1.10;;;;;;;24.64;37.35;98486.41;1877472;74;28169;-69
2023/04/21 08:51:11;;;;;;;1.10;1.05;;;;;;;24.64;37.38;98486.98;1900272;74;28182;-69
2023/04/21 08:53:59;;;;;;;1.42;1.22;;;;;;;24.65;37.33;98487.25;1878744;75;28547;-69
2023/04/21 08:56:49;;;;;;;1.20;1.10;;;;;;;24.65;37.32;98487.25;1902199;75;28223;-69
2023/04/21 08:59:37;;;;;;;1.27;1.10;;;;;;;24.66;37.28;98490.28;1877793;76;28167;-68
2023/04/21 09:02:26;;;;;;;1.20;1.20;;;;;;;24.64;37.29;98481.49;1900974;74;38471;-68
2023/04/21 09:05:17;;;;;;;1.10;1.05;;;;;;;24.63;37.32;98483.95;1888668;74;28145;-70
2023/04/21 09:08:13;;;;;;;1.30;1.25;;;;;;;24.64;37.30;98480.92;1904510;74;28152;-68
2023/04/21 09:11:02;;;;;;;1.40;1.30;;;;;;;24.62;37.28;98480.95;1877868;76;28149;-69
2023/04/21 09:13:50;;;;;;;1.65;1.55;;;;;;;24.63;37.32;98488.90;1898273;75;28199;-69
2023/04/21 09:16:39;;;;;;;2.20;1.70;;;;;;;24.64;37.30;98496.02;1901081;74;28264;-69
2023/04/21 09:19:28;;;;;;;1.80;1.57;;;;;;;24.64;37.26;98494.66;1893066;74;28109;-69
2023/04/21 09:22:18;;;;;;;1.67;1.45;;;;;;;24.62;37.28;98491.36;1878014;76;28102;-69
2023/04/21 09:25:07;;;;;;;1.47;1.40;;;;;;;24.63;37.26;98501.26;1897595;75;28110;-70
2023/04/21 09:27:56;;;;;;;1.52;1.42;;;;;;;24.63;37.22;98496.31;1901121;75;28564;-70
2023/04/21 09:30:44;;;;;;;1.80;1.70;;;;;;;24.64;37.22;98496.59;1909430;74;28361;-70
2023/04/21 09:33:33;;;;;;;1.77;1.67;;;;;;;24.63;37.23;98497.14;1884403;74;28241;-69
2023/04/21 09:36:25;;;;;;;1.80;1.70;;;;;;;24.65;37.21;98503.18;1886835;74;28202;-70
2023/04/21 09:39:13;;;;;;;1.62;1.52;;;;;;;24.66;37.14;98506.22;1902893;74;28229;-69
2023/04/21 09:42:02;;;;;;;1.90;1.80;;;;;;;24.68;37.11;98506.77;1894391;74;28162;-68
2023/04/21 09:44:50;;;;;;;1.47;1.37;;;;;;;24.59;37.37;98500.16;1877864;76;28172;-70
2023/04/21 09:47:42;;;;;;;2.00;1.80;;;;;;;24.61;37.26;98495.76;1899872;74;28144;-69
2023/04/21 09:50:32;;;;;;;1.70;1.52;;;;;;;24.65;37.18;98495.48;1888854;74;28295;-69
2023/04/21 09:53:24;;;;;;;1.90;1.80;;;;;;;24.69;37.18;98502.10;1888091;75;28192;-68
2023/04/21 09:56:16;;;;;;;1.90;1.80;;;;;;;24.70;37.17;98500.45;1900301;74;28334;-67
2023/04/21 09:59:07;;;;;;;1.55;1.45;;;;;;;24.68;37.17;98494.41;1900239;74;28286;-70
2023/04/21 10:01:57;;;;;;;1.70;1.60;;;;;;;24.66;37.28;98495.23;1893675;74;28272;-69
2023/04/21 10:04:46;;;;;;;1.80;1.70;;;;;;;24.68;37.16;98488.91;1877984;76;28128;-69
2023/04/21 10:07:34;;;;;;;1.92;1.62;;;;;;;24.67;37.17;98487.25;1900905;75;28196;-69
2023/04/21 10:10:30;;;;;;;1.32;1.22;;;;;;;24.65;37.33;98482.59;1887532;74;28136;-71
2023/04/21 10:13:19;;;;;;;1.80;1.70;;;;;;;24.64;37.36;98471.31;1902711;74;28161;-72
2023/04/21 10:16:09;;;;;;;2.30;1.62;;;;;;;24.63;37.37;98483.41;1891598;75;28077;-69
2023/04/21 10:18:58;;;;;;;1.70;1.60;;;;;;;24.65;37.44;98481.21;1883053;74;28308;-69
2023/04/21 10:21:47;;;;;;;1.57;1.50;;;;;;;24.63;37.42;98471.05;1905405;74;28189;-71
2023/04/21 10:24:41;;;;;;;1.50;1.40;;;;;;;24.63;37.52;98475.17;1891949;75;28172;-71
2023/04/21 10:27:38;;;;;;;1.47;1.47;;;;;;;24.65;37.53;98470.23;1902100;75;28129;-68
2023/04/21 10:30:27;;;;;;;1.73;1.63;;;;;;;24.64;37.62;98464.45;1890558;74;28126;-70
2023/04/21 10:33:17;;;;;;;1.80;1.70;;;;;;;24.65;37.84;98460.62;1884257;74;28503;-69
2023/04/21 10:36:06;;;;;;;1.73;1.63;;;;;;;24.64;37.90;98455.41;1889069;74;28054;-69
2023/04/21 10:38:58;;;;;;;2.00;1.75;;;;;;;24.64;38.00;98459.52;1877953;76;28193;-70
2023/04/21 10:41:46;;;;;;;1.80;1.70;;;;;;;24.64;38.07;98458.95;1877770;76;28117;-69
2023/04/21 10:44:34;;;;;;;2.15;1.95;;;;;;;24.63;38.03;98455.12;1900242;74;28269;-69
2023/04/21 10:47:44;;;;;;;1.90;1.80;;;;;;;24.69;38.04;98445.80;1888106;74;28222;-69
2023/04/21 10:50:32;;;;;;;1.80;1.70;;;;;;;24.68;37.88;98451.02;1903310;74;28230;-69
2023/04/21 10:53:24;;;;;;;1.70;1.60;;;;;;;24.69;37.87;98448.55;1902007;75;28198;-70
2023/04/21 10:56:12;;;;;;;2.02;1.92;;;;;;;24.69;37.84;98460.91;1901241;75;28245;-70
2023/04/21 10:59:01;;;;;;;1.90;1.80;;;;;;;24.67;37.79;98448.80;1901281;75;28164;-70
2023/04/21 11:01:50;;;;;;;5.50;1.80;;;;;;;24.72;37.71;98445.23;1902316;74;28234;-69
2023/04/21 11:04:46;;;;;;;1.82;1.72;;;;;;;24.71;37.69;98449.90;1896652;74;38499;-68
2023/04/21 11:07:31;;;;;;;1.67;1.57;;;;;;;24.73;37.59;98442.23;1899929;75;28175;-69
2023/04/21 11:10:20;;;;;;;1.77;1.67;;;;;;;24.75;37.56;98444.70;1899230;74;28198;-71
2023/04/21 11:13:08;;;;;;;1.77;1.67;;;;;;;24.77;37.60;98447.19;1897918;74;28146;-69
2023/04/21 11:15:59;;;;;;;2.72;1.60;;;;;;;24.77;37.56;98443.91;1877673;76;28285;-70
2023/04/21 11:18:47;;;;;;;2.72;1.70;;;;;;;24.79;37.45;98438.13;1899215;74;28213;-70
2023/04/21 11:21:35;;;;;;;2.37;1.75;;;;;;;24.79;37.38;98436.21;1885582;74;28189;-68
2023/04/21 11:24:24;;;;;;;1.80;1.42;;;;;;;24.82;37.38;98430.72;1910916;74;28109;-70
2023/04/21 11:27:18;;;;;;;1.80;1.70;;;;;;;24.82;37.41;98436.21;1877758;76;28107;-69
2023/04/21 11:30:04;;;;;;;1.60;1.50;;;;;;;24.84;37.31;98435.38;1899970;74;28164;-69
2023/04/21 11:32:56;;;;;;;1.75;1.65;;;;;;;24.83;37.32;98422.77;1889061;74;28247;-72
2023/04/21 11:35:44;;;;;;;1.77;1.70;;;;;;;24.83;37.27;98421.39;1910977;74;28172;-68
2023/04/21 11:38:40;;;;;;;1.98;1.70;;;;;;;24.82;37.31;98416.98;1890987;74;28187;-69
2023/04/21 11:41:29;;;;;;;1.98;1.87;;;;;;;24.84;37.26;98407.92;1902652;74;28201;-70
2023/04/21 11:44:35;;;;;;;1.52;1.42;;;;;;;24.84;37.20;98406.55;1897631;75;28173;-68
2023/04/21 11:47:26;;;;;;;1.42;1.42;;;;;;;24.87;37.16;98407.37;1886471;74;28126;-69
2023/04/21 11:50:18;;;;;;;2.00;1.90;;;;;;;24.83;37.14;98415.36;1883702;75;28070;-70
2023/04/21 11:53:07;;;;;;;1.80;1.70;;;;;;;24.83;37.16;98412.61;1868729;76;28137;-69
2023/04/21 11:55:55;;;;;;;1.55;1.50;;;;;;;24.84;37.19;98414.23;1884812;75;28247;-68
2023/04/21 11:58:45;;;;;;;1.55;1.45;;;;;;;24.75;37.14;98392.52;1883421;75;28149;-70
2023/04/21 12:01:33;;;;;;;1.82;1.72;;;;;;;24.83;37.13;98407.12;1897175;75;28099;-71
2023/04/21 12:04:23;;;;;;;1.82;1.70;;;;;;;24.85;37.15;98405.45;1871473;75;28273;-69
2023/04/21 12:07:11;;;;;;;1.72;1.62;;;;;;;24.88;37.05;98409.84;1892455;75;28208;-68
2023/04/21 12:10:01;;;;;;;1.60;1.50;;;;;;;24.89;37.07;98406.55;1879689;75;28143;-69
2023/04/21 12:12:50;;;;;;;1.60;1.50;;;;;;;24.87;37.06;98401.34;1883787;75;28162;-69
2023/04/21 12:15:39;;;;;;;1.60;1.50;;;;;;;24.87;37.12;98408.75;1879422;75;28141;-71
2023/04/21 12:18:28;;;;;;;1.95;1.82;;;;;;;24.90;37.03;98406.83;1901075;75;28136;-70
2023/04/21 12:21:16;;;;;;;1.47;1.37;;;;;;;24.89;37.06;98406.55;1881775;75;28281;-70
2023/04/21 12:24:06;;;;;;;1.72;1.62;;;;;;;24.89;37.05;98410.13;1868596;76;28185;-70
2023/04/21 12:26:54;;;;;;;2.00;1.80;;;;;;;24.89;37.02;98407.37;1892298;75;28177;-69
2023/04/21 12:29:43;;;;;;;1.90;1.67;;;;;;;24.89;36.93;98412.04;1879569;75;28164;-69
2023/04/21 12:32:31;;;;;;;1.63;1.53;;;;;;;24.90;36.99;98414.50;1883411;75;28196;-70
2023/04/21 12:35:19;;;;;;;1.75;1.65;;;;;;;24.90;36.94;98414.50;1881298;75;32009;-69
2023/04/21 12:38:07;;;;;;;1.65;1.55;;;;;;;24.91;36.88;98413.95;1872755;75;28214;-69
2023/04/21 12:40:56;;;;;;;1.57;1.47;;;;;;;24.92;36.93;98411.50;1863963;76;28583;-69
2023/04/21 12:43:44;;;;;;;1.40;1.30;;;;;;;24.83;37.17;98402.17;1877844;75;28170;-70
2023/04/21 12:46:33;;;;;;;1.70;1.60;;;;;;;24.86;37.08;98412.03;1879807;75;28088;-69
2023/04/21 12:49:21;;;;;;;1.77;1.67;;;;;;;24.91;36.96;98416.70;1870513;75;28222;-69
2023/04/21 12:52:10;;;;;;;0.60;0.60;;;;;;;24.85;36.93;98417.27;1895979;75;28250;-64
2023/04/21 12:54:58;;;;;;;0.60;0.60;;;;;;;24.49;31.76;98404.58;1876840;75;28662;-66
2023/04/21 12:57:47;;;;;;;0.55;0.55;;;;;;;24.41;30.35;98405.14;1885283;75;28234;-65
2023/04/21 13:00:36;;;;;;;0.40;0.40;;;;;;;24.39;28.94;98399.91;1890968;75;28169;-66
2023/04/21 13:03:25;;;;;;;0.40;0.40;;;;;;;24.41;28.55;98394.16;1893968;74;28137;-64
2023/04/21 13:06:13;;;;;;;0.45;0.45;;;;;;;24.36;27.95;98392.23;1882226;75;28071;-65
2023/04/21 13:09:02;;;;;;;0.62;0.62;;;;;;;24.20;27.27;98391.11;1871273;75;28210;-63
2023/04/21 13:11:50;;;;;;;0.70;0.70;;;;;;;24.20;27.00;98387.78;1876840;75;28036;-60
2023/04/21 13:14:39;;;;;;;0.40;0.40;;;;;;;24.29;26.90;98391.67;1867940;76;28107;-57
2023/04/21 13:17:27;;;;;;;0.47;0.47;;;;;;;24.25;26.74;98391.92;1880284;74;28106;-56